Summerfield, Texas
Current Conditions -  °F | °C
As of 4:35 PM on Wednesday 22 Oct 2014 (Local Time) from KHRX Reporting Station
Scattered Clouds Scattered Clouds  
Wind Chill: 75°   Ceiling: Unl
Heat Index: 75°   Visibility: 10mi
Dew Point: 55°   Wind: 14mph
Humidity: 49%   Direction: 160°SSE
Pressure: 30.07"   Gusts: 18mph
Location:  34.74°N, 102.51°W
Report Text: KHRX 222135Z AUTO 16012G16KT 10SM SCT047 SCT055 24/13 A3007 RMK AO2 T02390127
Loading
Personal Weather Stations






























Interactive Weather Map New forecast layout! Learn more

10-Day Weather Forecast

Advertisements
Track Severe Weather on mobile